Metar Cercanos

 

LEPA - Palma De Mallorc, Spain
Distance from station: ONO 38km
Actualización: Sun, 26-Jun-2022 4:30pm CEST
Few Clouds
Few Clouds
 Viento del SO
Viento: SO 22 km/h
Temperatura: 28°C
Indice Calor: 30°C
Rocío: 21°C
Humedad: 66%
Barómetro: 1009 hPa
Clouds: Few Clouds
Visibility: 10 km
Cloud details: Few Clouds 762 m
2022/06/26 14:30 LEPA 261430Z 23012KT 200V260 9999 FEW025 28/21 Q1009 NOSIG
LEMH - Mahon/Menorca Is, Spain
Distance from station: ENE 105km
Actualización: Sun, 26-Jun-2022 4:30pm CEST
Few Clouds
Few Clouds
 Viento del varies
Viento: varies 9 km/h
Temperatura: 28°C
Indice Calor: 30°C
Rocío: 22°C
Humedad: 70%
Barómetro: 1009 hPa
Clouds: Few Clouds
Visibility: 10 km
Cloud details: Few Clouds 762 m
2022/06/26 14:30 LEMH 261430Z VRB05KT 9999 FEW025 28/22 Q1009
 
LEIB - Ibiza/Es Codola, Spain
Distance from station: OSO 165km
Actualización: Sun, 26-Jun-2022 4:30pm CEST
Despejado
Despejado
 Viento del SO
Viento: SO 17 km/h
Temperatura: 26°C
Rocío: 19°C
Humedad: 65%
Barómetro: 1009 hPa
Resumen: Despejado
Visibility: greater than 10 km
2022/06/26 14:30 LEIB 261430Z 22009KT 190V250 CAVOK 26/19 Q1009 NOSIG
LEBL - Barcelona Airpor, Spain
Distance from station: NNO 225km
Actualización: Sun, 26-Jun-2022 4:30pm CEST
Few Clouds
Few Clouds
 Viento del E
Viento: E 15 km/h
Temperatura: 25°C
Rocío: 20°C
Humedad: 74%
Barómetro: 1010 hPa
Clouds: Few Clouds
Visibility: 10 km
Cloud details: Few Clouds 457 m
2022/06/26 14:30 LEBL 261430Z 10008KT 060V130 9999 FEW015 25/20 Q1010 NOSIG
 
LEVC - Valencia (civ/Mi, Spain
Distance from station: NO 188km
Actualización: Sun, 26-Jun-2022 4:30pm CEST
Few Clouds
Few Clouds
 Viento del E
Viento: E 19 km/h
Temperatura: 28°C
Indice Calor: 28°C
Rocío: 17°C
Humedad: 51%
Barómetro: 1009 hPa
Clouds: Few Clouds
Visibility: 10 km
Cloud details: Few Clouds 914 m
2022/06/26 14:30 LEVC 261430Z 10010KT 040V140 9999 FEW030 28/17 Q1009 NOSIG
LEGE - Gerona/Costa Bra, Spain
Distance from station: N 276km
Actualización: Sun, 26-Jun-2022 4:30pm CEST
Few Clouds
Few Clouds
 Viento del varies
Viento: varies 11 km/h
Temperatura: 29°C
Indice Calor: 29°C
Rocío: 16°C
Humedad: 45%
Barómetro: 1009 hPa
Clouds: Few Clouds
Visibility: 10 km
Cloud details: Few Clouds 1372 m
2022/06/26 14:30 LEGE 261430Z VRB06KT 9999 FEW045 29/16 Q1009
 
LEAL - Alicante/El Alte, Spain
Distance from station: OSO 344km
Actualización: Sun, 26-Jun-2022 4:30pm CEST
Despejado
Despejado
 Viento del E
Viento: E 17 km/h
Temperatura: 25°C
Rocío: 19°C
Humedad: 69%
Barómetro: 1009 hPa
Resumen: Despejado
Visibility: greater than 10 km
2022/06/26 14:30 LEAL 261430Z 10009KT 060V160 CAVOK 25/19 Q1009 NOSIG
LEAM - Almeria Airport, Spain
Distance from station: SSO 56km
Actualización: Sun, 26-Jun-2022 4:30pm CEST
Despejado
Despejado
 Viento del varies
Viento: varies 7 km/h
Temperatura: 23°C
Rocío: 17°C
Humedad: 69%
Barómetro: 1008 hPa
Resumen: Despejado
Visibility: greater than 10 km
2022/06/26 14:30 LEAM 261430Z VRB04KT CAVOK 23/17 Q1008
 
LEZG - Zaragoza (mil/Ci, Spain
Distance from station: NO 431km
Actualización: Sun, 26-Jun-2022 4:30pm CEST
Few Clouds
Few Clouds
 Viento del NO
Viento: NO 6 km/h
Temperatura: 27°C
Rocío: 11°C
Humedad: 37%
Barómetro: 1010 hPa
Clouds: Few Clouds
Visibility: 10 km
Cloud details: Few Clouds 2438 m
2022/06/26 14:30 LEZG 261430Z 31003KT 9999 FEW080 27/11 Q1010
LEMD - Madrid/Barajas, Spain
Distance from station: ONO 234km
Actualización: Sun, 26-Jun-2022 4:30pm CEST
Despejado
Despejado
 Viento del SSO
Viento: SSO 15 km/h
Temperatura: 27°C
Rocío: -7°C
Humedad: 10%
Barómetro: 1011 hPa
Resumen: Despejado
Visibility: greater than 10 km
2022/06/26 14:30 LEMD 261430Z 20008KT 170V230 CAVOK 27/M07 Q1011 NOSIG
 
LEGR - Granada Airport, Spain
Distance from station: OSO 62km
Actualización: Sun, 26-Jun-2022 4:30pm CEST
Despejado
Despejado
 Viento del ONO
Viento: ONO 19 km/h
Temperatura: 31°C
Rocío: 8°C
Humedad: 24%
Barómetro: 1011 hPa
Resumen: Despejado
Visibility: greater than 10 km
2022/06/26 14:30 LEGR 261430Z 29010KT 240V330 CAVOK 31/08 Q1011
LEMG - Malaga (civ/Mil), Spain
Distance from station: OSO 227km
Actualización: Sun, 26-Jun-2022 4:30pm CEST
Despejado
Despejado
 Viento del O
Viento: O 11 km/h
Temperatura: 34°C
Rocío: 9°C
Humedad: 21%
Barómetro: 1008 hPa
Resumen: Despejado
Visibility: greater than 10 km
2022/06/26 14:30 LEMG 261430Z 28006KT CAVOK 34/09 Q1008 NOSIG
 
LEZL - Sevilla (civ/Mil, Spain
Distance from station: S 318km
Actualización: Sun, 26-Jun-2022 4:30pm CEST
Despejado
Despejado
 Viento del O
Viento: O 20 km/h
Temperatura: 29°C
Rocío: -4°C
Humedad: 11%
Barómetro: 1011 hPa
Resumen: Despejado
Visibility: greater than 10 km
2022/06/26 14:30 LEZL 261430Z 28011KT CAVOK 29/M04 Q1011 NOSIG
LEVT - Vitoria, Spain
Distance from station: NO 226km
Actualización: Sun, 26-Jun-2022 4:30pm CEST
Muy nuboso
Muy nuboso
 Viento del NO
Viento: NO 17 km/h
Temperatura: 15°C
Rocío: 11°C
Humedad: 77%
Barómetro: 1015 hPa
Clouds: Muy nuboso
Visibility: 10 km
Cloud details: Few Clouds 610 m
Muy nuboso 762 m
2022/06/26 14:30 LEVT 261430Z 32009KT 9999 FEW020 BKN025 15/11 Q1015
 
LEBB - Bilbao/Sondica, Spain
Distance from station: NNO 235km
Actualización: Sun, 26-Jun-2022 4:39pm CEST
Cubierto
Cubierto
 Viento del NO
Viento: NO 15 km/h
Temperatura: 16°C
Rocío: 15°C
Humedad: 94%
Barómetro: 1016 hPa
Clouds: Cubierto
Visibility: 6 km
Cloud details: Parcialmente nuboso 457 m
Muy nuboso 701 m
Cubierto 975 m
2022/06/26 14:39 LEBB 261439Z 31008KT 6000 SCT015 BKN023 OVC032 16/15 Q1016 RERA NOSIG
LESO - San Sebastian/Fu, Spain
Distance from station: N 231km
Actualización: Sun, 26-Jun-2022 4:30pm CEST
Muy nuboso
Muy nuboso
 Viento del NNE
Viento: NNE 13 km/h
Temperatura: 20°C
Rocío: 13°C
Humedad: 64%
Barómetro: 1015 hPa
Clouds: Muy nuboso
Visibility: 10 km
Cloud details: Parcialmente nuboso 1219 m
Muy nuboso 1676 m
2022/06/26 14:30 LESO 261430Z 03007KT 340V070 9999 SCT040 BKN055 20/13 Q1015
 
LEVD - Valladolid(Mil/C, Spain
Distance from station: ONO 239km
Actualización: Sun, 26-Jun-2022 4:30pm CEST
Despejado
Despejado
 Viento del ONO
Viento: ONO 9 km/h
Temperatura: 22°C
Rocío: 3°C
Humedad: 29%
Barómetro: 1013 hPa
Resumen: Despejado
Visibility: greater than 10 km
2022/06/26 14:30 LEVD 261430Z 30005KT CAVOK 22/03 Q1013
LESA - Salamanca (civ/M, Spain
Distance from station: ONO 349km
Actualización: Sun, 26-Jun-2022 4:30pm CEST
Few Clouds
Few Clouds
 Viento del ONO
Viento: ONO 11 km/h
Temperatura: 22°C
Rocío: 3°C
Humedad: 29%
Barómetro: 1013 hPa
Clouds: Few Clouds
Visibility: 10 km
Cloud details: Few Clouds 1463 m
2022/06/26 14:30 LESA 261430Z 29006KT 230V340 9999 FEW048 22/03 Q1013
 
LEXJ - Santander/Paraya, Spain
Distance from station: NNO 247km
Actualización: Sun, 26-Jun-2022 4:30pm CEST
Cubierto
Cubierto
 Viento del NO
Viento: NO 11 km/h
Temperatura: 17°C
Rocío: 11°C
Humedad: 68%
Barómetro: 1016 hPa
Clouds: Cubierto
Visibility: 10 km
Cloud details: Muy nuboso 914 m
Cubierto 1524 m
2022/06/26 14:30 LEXJ 261430Z 31006KT 260V030 9999 BKN030 OVC050 17/11 Q1016
LEAS - Asturias/Aviles, Spain
Distance from station: NO 214km
Actualización: Sun, 26-Jun-2022 4:30pm CEST
Few Clouds
Few Clouds
 Viento del NO
Viento: NO 15 km/h
Temperatura: 17°C
Rocío: 11°C
Humedad: 68%
Barómetro: 1017 hPa
Clouds: Few Clouds
Visibility: 10 km
Cloud details: Few Clouds 823 m
2022/06/26 14:30 LEAS 261430Z 31008KT 260V030 9999 FEW027 17/11 Q1017 NOSIG
 
LECO - La Coruna/Alvedr, Spain
Distance from station: ONO 222km
Actualización: Sun, 26-Jun-2022 4:30pm CEST
Few Clouds
Few Clouds
 Viento del NNO
Viento: NNO 13 km/h
Temperatura: 18°C
Rocío: 10°C
Humedad: 60%
Barómetro: 1017 hPa
Clouds: Few Clouds
Visibility: 10 km
Cloud details: Few Clouds 975 m
2022/06/26 14:30 LECO 261430Z 33007KT 270V030 9999 FEW032 18/10 Q1017 NOSIG
LEVX - Vigo/Peinador, Spain
Distance from station: O 214km
Actualización: Sun, 26-Jun-2022 4:30pm CEST
Few Clouds
Few Clouds
 Viento del ONO
Viento: ONO 17 km/h
Temperatura: 18°C
Rocío: 9°C
Humedad: 56%
Barómetro: 1017 hPa
Clouds: Few Clouds
Visibility: 10 km
Cloud details: Few Clouds 1067 m
2022/06/26 14:30 LEVX 261430Z 30009KT 250V010 9999 FEW035 18/09 Q1017 NOSIG